createdAt,value
2023-05-03T00:00:49.242Z,5.40
2023-05-03T00:04:56.690Z,4.20
2023-05-03T00:08:59.101Z,5.00
2023-05-03T00:13:01.235Z,4.70
2023-05-03T00:17:03.226Z,4.60
2023-05-03T00:21:05.431Z,5.40
2023-05-03T00:25:11.167Z,4.60
2023-05-03T00:29:13.084Z,4.70
2023-05-03T00:33:16.297Z,3.80
2023-05-03T00:37:18.245Z,5.30
2023-05-03T00:41:21.328Z,5.40
2023-05-03T00:45:23.766Z,4.90
2023-05-03T00:50:08.957Z,5.10
2023-05-03T00:54:14.479Z,5.60
2023-05-03T00:58:17.408Z,4.60
2023-05-03T01:02:19.860Z,5.40
2023-05-03T01:06:31.843Z,4.60
2023-05-03T01:10:46.986Z,5.90
2023-05-03T01:15:04.190Z,4.30
2023-05-03T01:19:33.109Z,5.90
2023-05-03T01:23:53.564Z,4.90
2023-05-03T01:27:56.211Z,4.30
2023-05-03T01:32:01.652Z,4.70
2023-05-03T01:36:12.721Z,3.70
2023-05-03T01:40:22.423Z,4.40
2023-05-03T01:44:26.467Z,5.50
2023-05-03T01:48:28.295Z,5.60
2023-05-03T01:52:30.467Z,4.90
2023-05-03T01:56:34.366Z,5.10
2023-05-03T02:00:36.250Z,6.10
2023-05-03T02:04:38.295Z,4.20
2023-05-03T02:08:40.400Z,5.10
2023-05-03T02:12:44.001Z,4.00
2023-05-03T02:16:46.277Z,4.00
2023-05-03T02:20:48.367Z,5.60
2023-05-03T02:24:50.545Z,4.50
2023-05-03T02:28:52.621Z,3.90
2023-05-03T02:32:54.516Z,4.80
2023-05-03T02:36:58.464Z,5.80
2023-05-03T02:41:01.334Z,4.60
2023-05-03T02:45:04.714Z,4.50
2023-05-03T02:49:07.966Z,4.40
2023-05-03T02:53:09.957Z,6.00
2023-05-03T02:57:13.996Z,5.80
2023-05-03T03:01:17.304Z,5.20
2023-05-03T03:05:22.629Z,5.60
2023-05-03T03:09:39.620Z,4.70
2023-05-03T03:18:23.436Z,4.10
2023-05-03T03:22:29.610Z,5.20
2023-05-03T03:26:52.814Z,5.10
2023-05-03T03:31:01.924Z,4.40
2023-05-03T03:35:27.891Z,6.20
2023-05-03T03:39:31.695Z,5.20
2023-05-03T03:43:35.122Z,6.30
2023-05-03T03:47:37.990Z,5.80
2023-05-03T03:51:40.090Z,5.00
2023-05-03T03:55:47.880Z,6.50
2023-05-03T04:27:58.618Z,5.00
2023-05-03T04:32:13.972Z,4.90
2023-05-03T04:36:15.418Z,5.90
2023-05-03T04:40:21.473Z,5.60
2023-05-03T04:44:23.305Z,5.30
2023-05-03T04:48:24.718Z,4.60
2023-05-03T04:52:26.463Z,5.80
2023-05-03T04:56:38.546Z,5.50
2023-05-03T05:00:45.902Z,6.40
2023-05-03T05:04:47.405Z,6.10
2023-05-03T05:08:54.838Z,5.70
2023-05-03T05:12:57.606Z,5.30
2023-05-03T05:16:59.590Z,4.70
2023-05-03T05:21:00.970Z,5.60
2023-05-03T05:25:02.793Z,6.20
2023-05-03T05:29:04.894Z,5.00
2023-05-03T05:33:11.492Z,4.90
2023-05-03T05:37:13.225Z,4.70
2023-05-03T05:41:21.830Z,6.10
2023-05-03T05:49:54.828Z,5.10
2023-05-03T05:53:58.846Z,5.40
2023-05-03T05:58:01.963Z,4.50
2023-05-03T06:06:40.677Z,4.50
2023-05-03T06:15:06.088Z,4.80
2023-05-03T06:57:53.359Z,3.10
2023-05-03T07:06:54.707Z,2.80
2023-05-03T07:11:02.097Z,4.10
2023-05-03T07:15:04.549Z,2.90
2023-05-03T07:19:06.132Z,3.30
2023-05-03T07:23:07.582Z,2.60
2023-05-03T07:27:09.123Z,3.20
2023-05-03T07:31:11.479Z,2.20
2023-05-03T07:35:12.901Z,2.10
2023-05-03T07:39:15.392Z,2.80
2023-05-03T07:43:19.089Z,2.80
2023-05-03T07:47:20.953Z,3.50
2023-05-03T07:51:22.928Z,2.30
2023-05-03T07:55:25.006Z,2.60
2023-05-03T07:59:26.797Z,2.20
2023-05-03T08:03:28.832Z,2.40
2023-05-03T08:07:31.441Z,2.80
2023-05-03T08:11:36.210Z,1.60
2023-05-03T08:15:37.875Z,2.70
2023-05-03T08:19:39.767Z,3.00
2023-05-03T08:23:41.908Z,2.80
2023-05-03T08:27:43.636Z,2.20
2023-05-03T08:31:45.830Z,2.40
2023-05-03T08:35:49.271Z,2.70
2023-05-03T08:39:51.622Z,3.00
2023-05-03T08:43:54.728Z,3.10
2023-05-03T08:47:56.592Z,2.40
2023-05-03T08:52:00.994Z,2.30
2023-05-03T08:56:09.921Z,3.10
2023-05-03T09:00:12.201Z,2.10
2023-05-03T09:04:14.597Z,2.70
2023-05-03T09:08:16.535Z,2.00
2023-05-03T09:12:40.456Z,2.50
2023-05-03T09:16:44.101Z,2.50
2023-05-03T09:20:51.098Z,3.10
2023-05-03T09:24:58.049Z,2.80
2023-05-03T09:29:01.434Z,1.90
2023-05-03T09:33:04.011Z,2.30
2023-05-03T09:37:06.419Z,2.90
2023-05-03T09:41:08.688Z,2.80
2023-05-03T09:45:11.050Z,3.00
2023-05-03T09:49:14.107Z,2.60
2023-05-03T09:53:21.108Z,3.00
2023-05-03T09:57:23.255Z,2.60
2023-05-03T10:01:26.031Z,2.10
2023-05-03T10:05:34.546Z,2.80
2023-05-03T10:09:42.185Z,2.20
2023-05-03T10:13:45.300Z,2.60
2023-05-03T10:17:53.529Z,2.80
2023-05-03T10:22:11.505Z,3.00
2023-05-03T10:26:18.839Z,2.80
2023-05-03T10:30:41.866Z,2.80
2023-05-03T10:34:46.325Z,2.50
2023-05-03T10:43:34.926Z,2.60
2023-05-03T10:47:37.005Z,2.30
2023-05-03T10:51:40.141Z,3.10
2023-05-03T10:56:20.820Z,2.70
2023-05-03T11:00:43.627Z,2.00
2023-05-03T11:04:49.636Z,2.50
2023-05-03T11:12:56.332Z,2.50
2023-05-03T11:16:58.424Z,3.00
2023-05-03T11:21:01.408Z,2.40
2023-05-03T11:25:03.623Z,2.80
2023-05-03T11:29:05.847Z,2.10
2023-05-03T11:33:08.307Z,2.20
2023-05-03T11:37:10.495Z,3.20
2023-05-03T11:41:17.555Z,2.50
2023-05-03T11:45:26.799Z,2.60
2023-05-03T11:49:29.132Z,2.70
2023-05-03T11:53:31.733Z,3.00
2023-05-03T11:57:33.812Z,2.30
2023-05-03T12:01:35.986Z,3.10
2023-05-03T12:05:38.507Z,2.20
2023-05-03T12:09:41.502Z,2.70
2023-05-03T12:13:47.714Z,1.90
2023-05-03T12:17:56.728Z,2.40
2023-05-03T12:22:13.234Z,1.90
2023-05-03T12:26:21.964Z,3.00
2023-05-03T12:30:24.753Z,2.20
2023-05-03T12:38:37.052Z,3.40
2023-05-03T12:42:43.256Z,3.20
2023-05-03T12:46:46.376Z,1.90
2023-05-03T12:50:51.906Z,1.90
2023-05-03T12:54:57.535Z,2.00
2023-05-03T13:07:16.482Z,2.90
2023-05-03T13:11:19.838Z,2.20
2023-05-03T13:15:24.777Z,1.70
2023-05-03T13:19:27.653Z,2.40
2023-05-03T13:23:29.704Z,3.40
2023-05-03T13:27:31.902Z,2.40
2023-05-03T13:31:35.188Z,2.90
2023-05-03T13:35:37.292Z,2.10
2023-05-03T13:39:39.796Z,2.10
2023-05-03T13:43:42.433Z,2.60
2023-05-03T13:51:49.411Z,2.30
2023-05-03T13:55:51.588Z,2.20
2023-05-03T13:59:56.113Z,1.70
2023-05-03T14:03:58.356Z,1.70
2023-05-03T14:08:00.334Z,2.80
2023-05-03T14:12:03.650Z,3.10
2023-05-03T14:16:06.083Z,2.60
2023-05-03T14:20:10.386Z,3.10
2023-05-03T14:24:12.654Z,2.30
2023-05-03T14:28:15.364Z,2.30
2023-05-03T14:36:53.398Z,2.90
2023-05-03T14:40:55.128Z,2.30
2023-05-03T14:45:09.855Z,2.90
2023-05-03T14:49:13.655Z,2.20
2023-05-03T14:53:16.040Z,2.10
2023-05-03T14:57:17.651Z,2.10
2023-05-03T15:01:19.807Z,2.50
2023-05-03T15:05:21.458Z,2.10
2023-05-03T15:09:22.832Z,1.60
2023-05-03T15:13:29.638Z,2.00
2023-05-03T15:17:31.109Z,2.00
2023-05-03T15:21:44.180Z,2.40
2023-05-03T15:25:45.951Z,1.90
2023-05-03T15:29:47.343Z,1.40
2023-05-03T15:33:48.709Z,2.60
2023-05-03T15:37:50.180Z,2.70
2023-05-03T15:41:51.674Z,1.70
2023-05-03T15:45:54.915Z,2.00
2023-05-03T15:49:59.893Z,2.20
2023-05-03T15:54:01.295Z,2.10
2023-05-03T15:58:02.631Z,2.10
2023-05-03T16:02:04.112Z,2.00
2023-05-03T16:06:06.282Z,1.80
2023-05-03T16:10:08.770Z,1.80
2023-05-03T16:14:10.223Z,1.90
2023-05-03T16:18:11.921Z,2.10
2023-05-03T16:22:13.936Z,1.60
2023-05-03T16:26:18.700Z,1.50
2023-05-03T16:30:20.368Z,1.70
2023-05-03T16:34:22.433Z,1.80
2023-05-03T16:38:29.679Z,2.10
2023-05-03T16:42:31.578Z,2.00
2023-05-03T16:46:34.130Z,2.00
2023-05-03T16:50:36.997Z,2.70
2023-05-03T16:54:39.423Z,1.70
2023-05-03T16:58:40.835Z,1.60
2023-05-03T17:02:42.272Z,2.10
2023-05-03T17:06:43.739Z,1.90
2023-05-03T17:10:45.092Z,1.70
2023-05-03T17:14:47.794Z,1.50
2023-05-03T17:18:54.138Z,2.20
2023-05-03T17:22:57.141Z,1.80
2023-05-03T17:26:58.993Z,1.70
2023-05-03T17:31:55.824Z,2.60
2023-05-03T17:35:59.957Z,2.30
2023-05-03T17:40:18.719Z,2.70
2023-05-03T17:44:20.143Z,2.00
2023-05-03T17:48:23.602Z,3.20
2023-05-03T17:52:25.029Z,2.60
2023-05-03T17:56:26.580Z,2.40
2023-05-03T18:00:37.614Z,6.10
2023-05-03T18:04:38.998Z,4.10
2023-05-03T18:08:40.982Z,5.00
2023-05-03T18:12:42.935Z,4.80
2023-05-03T18:16:44.576Z,3.10
2023-05-03T18:20:46.131Z,3.60
2023-05-03T18:24:54.854Z,4.20
2023-05-03T18:28:56.384Z,3.60
2023-05-03T18:32:59.464Z,3.90
2023-05-03T18:37:01.054Z,5.70
2023-05-03T18:41:10.122Z,5.50
2023-05-03T18:45:14.318Z,6.40
2023-05-03T18:49:16.236Z,7.00
2023-05-03T18:53:17.559Z,5.20
2023-05-03T18:57:19.394Z,3.80
2023-05-03T19:01:20.774Z,3.40
2023-05-03T19:05:22.191Z,4.10
2023-05-03T19:09:23.990Z,3.70
2023-05-03T19:13:25.421Z,2.80
2023-05-03T19:17:27.554Z,2.80
2023-05-03T19:21:29.003Z,4.00
2023-05-03T19:25:30.538Z,4.00
2023-05-03T19:29:32.257Z,2.90
2023-05-03T19:33:38.800Z,4.60
2023-05-03T19:37:41.856Z,4.00
2023-05-03T19:41:43.523Z,5.00
2023-05-03T19:45:45.047Z,6.10
2023-05-03T19:49:46.560Z,6.30
2023-05-03T19:53:48.944Z,5.50
2023-05-03T19:57:50.612Z,4.60
2023-05-03T20:01:52.089Z,9.90
2023-05-03T20:06:02.696Z,11.00
2023-05-03T20:10:05.054Z,12.80
2023-05-03T20:14:18.031Z,12.50
2023-05-03T20:18:19.451Z,9.00
2023-05-03T20:22:35.439Z,11.00
2023-05-03T20:26:37.708Z,11.50
2023-05-03T20:30:45.411Z,10.30
2023-05-03T20:34:46.773Z,10.50
2023-05-03T20:39:08.996Z,9.40
2023-05-03T20:43:10.826Z,8.30
2023-05-03T20:47:17.394Z,8.50
2023-05-03T20:51:18.806Z,8.20
2023-05-03T20:55:20.274Z,8.20
2023-05-03T20:59:21.653Z,7.40
2023-05-03T21:03:28.268Z,7.90
2023-05-03T21:07:30.035Z,8.60
2023-05-03T21:11:31.436Z,6.90
2023-05-03T21:15:32.817Z,6.60
2023-05-03T21:19:47.551Z,5.20
2023-05-03T21:23:48.982Z,5.90
2023-05-03T21:27:50.340Z,6.40
2023-05-03T21:32:43.339Z,6.70
2023-05-03T21:36:44.650Z,6.80
2023-05-03T21:40:48.881Z,7.60
2023-05-03T21:44:50.589Z,6.20
2023-05-03T21:48:51.982Z,7.10
2023-05-03T21:52:53.508Z,6.60
2023-05-03T21:56:54.869Z,8.10
2023-05-03T22:00:56.808Z,7.50
2023-05-03T22:05:07.051Z,10.70
2023-05-03T22:09:09.043Z,11.50
2023-05-03T22:13:10.816Z,11.90
2023-05-03T22:17:16.137Z,8.60
2023-05-03T22:21:17.867Z,9.20
2023-05-03T22:25:26.553Z,8.40
2023-05-03T22:29:28.036Z,7.50
2023-05-03T22:33:29.451Z,5.50
2023-05-03T22:37:50.457Z,6.20
2023-05-03T22:41:52.422Z,7.70
2023-05-03T22:45:53.922Z,5.20
2023-05-03T22:49:55.337Z,6.50
2023-05-03T22:53:58.945Z,6.10
2023-05-03T22:58:00.357Z,5.60
2023-05-03T23:02:09.119Z,6.10
2023-05-03T23:06:10.770Z,4.80
2023-05-03T23:10:12.178Z,5.40
2023-05-03T23:14:42.766Z,5.90
2023-05-03T23:18:44.125Z,6.60
2023-05-03T23:22:45.548Z,6.80
2023-05-03T23:26:47.940Z,5.90
2023-05-03T23:30:50.467Z,9.00
2023-05-03T23:34:52.312Z,7.40
2023-05-03T23:39:19.123Z,6.80
2023-05-03T23:43:20.693Z,7.60
2023-05-03T23:47:22.370Z,5.70
2023-05-03T23:51:24.272Z,8.90
2023-05-03T23:55:25.656Z,11.30
2023-05-03T23:59:43.728Z,8.10
